sensor_id;sensor_type;location;lat;lon;timestamp;pressure;altitude;pressure_sealevel;temperature;humidity
77739;BME280;66904;59.926;30.404;2023-08-31T00:01:37;100794.31;;;26.35;53.67
77739;BME280;66904;59.926;30.404;2023-08-31T00:06:38;100774.50;;;26.34;54.27
77739;BME280;66904;59.926;30.404;2023-08-31T00:11:39;100755.50;;;26.34;54.18
77739;BME280;66904;59.926;30.404;2023-08-31T00:16:39;100722.72;;;26.36;53.75
77739;BME280;66904;59.926;30.404;2023-08-31T00:21:41;100711.03;;;26.35;54.18
77739;BME280;66904;59.926;30.404;2023-08-31T00:26:41;100701.44;;;26.33;54.23
77739;BME280;66904;59.926;30.404;2023-08-31T00:31:42;100743.59;;;26.35;54.46
77739;BME280;66904;59.926;30.404;2023-08-31T00:36:45;100719.16;;;26.35;53.97
77739;BME280;66904;59.926;30.404;2023-08-31T00:41:45;100737.56;;;26.33;54.25
77739;BME280;66904;59.926;30.404;2023-08-31T00:46:46;100727.53;;;26.34;54.29
77739;BME280;66904;59.926;30.404;2023-08-31T00:51:47;100754.66;;;26.34;54.55
77739;BME280;66904;59.926;30.404;2023-08-31T00:56:54;100738.81;;;26.31;54.39
77739;BME280;66904;59.926;30.404;2023-08-31T01:02:05;100740.06;;;26.35;54.78
77739;BME280;66904;59.926;30.404;2023-08-31T01:07:21;100752.16;;;26.32;54.53
77739;BME280;66904;59.926;30.404;2023-08-31T01:12:38;100748.00;;;26.30;54.55
77739;BME280;66904;59.926;30.404;2023-08-31T01:17:45;100729.25;;;26.28;54.86
77739;BME280;66904;59.926;30.404;2023-08-31T01:22:57;100716.09;;;26.25;54.46
77739;BME280;66904;59.926;30.404;2023-08-31T01:28:00;100704.22;;;26.19;54.38
77739;BME280;66904;59.926;30.404;2023-08-31T01:33:02;100697.09;;;26.25;54.71
77739;BME280;66904;59.926;30.404;2023-08-31T01:38:03;100690.03;;;26.24;54.20
77739;BME280;66904;59.926;30.404;2023-08-31T01:43:10;100683.78;;;26.24;54.79
77739;BME280;66904;59.926;30.404;2023-08-31T01:48:13;100672.91;;;26.24;54.82
77739;BME280;66904;59.926;30.404;2023-08-31T01:53:14;100654.97;;;26.23;54.79
77739;BME280;66904;59.926;30.404;2023-08-31T01:58:15;100628.09;;;26.21;54.48
77739;BME280;66904;59.926;30.404;2023-08-31T02:03:15;100638.09;;;26.20;54.46
77739;BME280;66904;59.926;30.404;2023-08-31T02:08:16;100614.72;;;26.19;54.73
77739;BME280;66904;59.926;30.404;2023-08-31T02:13:18;100604.91;;;26.18;54.74
77739;BME280;66904;59.926;30.404;2023-08-31T02:18:18;100604.91;;;26.18;54.40
77739;BME280;66904;59.926;30.404;2023-08-31T02:23:19;100594.91;;;26.19;54.40
77739;BME280;66904;59.926;30.404;2023-08-31T02:28:19;100577.00;;;26.18;54.36
77739;BME280;66904;59.926;30.404;2023-08-31T02:33:20;100585.13;;;26.18;54.74
77739;BME280;66904;59.926;30.404;2023-08-31T02:38:21;100556.34;;;26.17;54.92
77739;BME280;66904;59.926;30.404;2023-08-31T02:43:22;100570.50;;;26.19;54.29
77739;BME280;66904;59.926;30.404;2023-08-31T02:48:23;100576.16;;;26.17;54.61
77739;BME280;66904;59.926;30.404;2023-08-31T02:53:24;100592.19;;;26.19;54.41
77739;BME280;66904;59.926;30.404;2023-08-31T02:58:24;100601.16;;;26.19;54.42
77739;BME280;66904;59.926;30.404;2023-08-31T03:03:25;100620.16;;;26.19;54.50
77739;BME280;66904;59.926;30.404;2023-08-31T03:08:27;100623.09;;;26.18;54.42
77739;BME280;66904;59.926;30.404;2023-08-31T03:13:28;100629.34;;;26.18;54.53
77739;BME280;66904;59.926;30.404;2023-08-31T03:18:28;100636.44;;;26.19;54.45
77739;BME280;66904;59.926;30.404;2023-08-31T03:23:29;100634.75;;;26.18;54.88
77739;BME280;66904;59.926;30.404;2023-08-31T03:28:30;100609.53;;;26.18;54.51
77739;BME280;66904;59.926;30.404;2023-08-31T03:33:31;100619.56;;;26.17;54.53
77739;BME280;66904;59.926;30.404;2023-08-31T03:38:32;100624.97;;;26.17;55.12
77739;BME280;66904;59.926;30.404;2023-08-31T03:43:32;100618.09;;;26.15;54.36
77739;BME280;66904;59.926;30.404;2023-08-31T03:48:33;100608.72;;;26.17;54.60
77739;BME280;66904;59.926;30.404;2023-08-31T03:53:33;100617.88;;;26.16;54.71
77739;BME280;66904;59.926;30.404;2023-08-31T03:58:34;100624.31;;;26.15;55.11
77739;BME280;66904;59.926;30.404;2023-08-31T04:03:35;100633.28;;;26.16;54.52
77739;BME280;66904;59.926;30.404;2023-08-31T04:08:35;100614.53;;;26.14;55.13
77739;BME280;66904;59.926;30.404;2023-08-31T04:13:36;100621.84;;;26.14;54.48
77739;BME280;66904;59.926;30.404;2023-08-31T04:18:36;100624.75;;;26.12;54.85
77739;BME280;66904;59.926;30.404;2023-08-31T04:23:37;100641.84;;;26.13;55.10
77739;BME280;66904;59.926;30.404;2023-08-31T04:28:38;100623.09;;;26.11;55.00
77739;BME280;66904;59.926;30.404;2023-08-31T04:33:39;100631.25;;;26.11;54.52
77739;BME280;66904;59.926;30.404;2023-08-31T04:38:40;100644.81;;;26.11;54.81
77739;BME280;66904;59.926;30.404;2023-08-31T04:43:41;100628.56;;;26.05;54.60
77739;BME280;66904;59.926;30.404;2023-08-31T04:48:41;100636.03;;;26.09;54.88
77739;BME280;66904;59.926;30.404;2023-08-31T04:53:42;100653.97;;;26.10;54.49
77739;BME280;66904;59.926;30.404;2023-08-31T04:58:42;100655.00;;;26.09;54.63
77739;BME280;66904;59.926;30.404;2023-08-31T05:03:43;100655.00;;;26.09;54.73
77739;BME280;66904;59.926;30.404;2023-08-31T05:08:43;100655.00;;;26.09;54.71
77739;BME280;66904;59.926;30.404;2023-08-31T05:13:44;100656.25;;;26.13;55.16
77739;BME280;66904;59.926;30.404;2023-08-31T05:18:45;100657.09;;;26.14;54.61
77739;BME280;66904;59.926;30.404;2023-08-31T05:23:45;100659.56;;;26.15;55.14
77739;BME280;66904;59.926;30.404;2023-08-31T05:28:46;100647.50;;;26.18;54.67
77739;BME280;66904;59.926;30.404;2023-08-31T05:33:46;100659.78;;;26.20;55.08
77739;BME280;66904;59.926;30.404;2023-08-31T05:38:48;100653.94;;;26.24;54.88
77739;BME280;66904;59.926;30.404;2023-08-31T05:43:48;100667.66;;;26.29;55.21
77739;BME280;66904;59.926;30.404;2023-08-31T05:48:52;100671.44;;;26.28;55.34
77739;BME280;66904;59.926;30.404;2023-08-31T05:53:53;100667.47;;;26.30;55.00
77739;BME280;66904;59.926;30.404;2023-08-31T05:58:53;100676.44;;;26.31;55.58
77739;BME280;66904;59.926;30.404;2023-08-31T06:03:55;100671.00;;;26.31;55.37
77739;BME280;66904;59.926;30.404;2023-08-31T06:08:55;100679.16;;;26.31;55.48
77739;BME280;66904;59.926;30.404;2023-08-31T06:13:56;100682.69;;;26.31;55.71
77739;BME280;66904;59.926;30.404;2023-08-31T06:18:57;100679.97;;;26.31;55.70
77739;BME280;66904;59.926;30.404;2023-08-31T06:23:58;100673.72;;;26.31;55.54
77739;BME280;66904;59.926;30.404;2023-08-31T06:28:58;100676.63;;;26.29;55.46
77739;BME280;66904;59.926;30.404;2023-08-31T06:33:59;100676.00;;;26.34;55.86
77739;BME280;66904;59.926;30.404;2023-08-31T06:38:59;100692.88;;;26.36;55.27
77739;BME280;66904;59.926;30.404;2023-08-31T06:44:01;100677.84;;;26.40;55.68
77739;BME280;66904;59.926;30.404;2023-08-31T06:49:01;100670.72;;;26.39;56.18
77739;BME280;66904;59.926;30.404;2023-08-31T06:54:02;100681.09;;;26.48;55.84
77739;BME280;66904;59.926;30.404;2023-08-31T06:59:08;100677.16;;;26.51;55.69
77739;BME280;66904;59.926;30.404;2023-08-31T07:04:09;100666.28;;;26.51;55.80
77739;BME280;66904;59.926;30.404;2023-08-31T07:09:10;100665.03;;;26.53;56.13
77739;BME280;66904;59.926;30.404;2023-08-31T07:14:10;100658.56;;;26.54;56.15
77739;BME280;66904;59.926;30.404;2023-08-31T07:19:11;100656.03;;;26.53;56.57
77739;BME280;66904;59.926;30.404;2023-08-31T07:24:11;100659.00;;;26.51;56.55
77739;BME280;66904;59.926;30.404;2023-08-31T07:29:12;100651.66;;;26.52;56.37
77739;BME280;66904;59.926;30.404;2023-08-31T07:34:34;100655.00;;;26.54;56.76
77739;BME280;66904;59.926;30.404;2023-08-31T07:39:43;100651.22;;;26.55;57.42
77739;BME280;66904;59.926;30.404;2023-08-31T07:44:47;100636.22;;;26.52;57.25
77739;BME280;66904;59.926;30.404;2023-08-31T07:49:51;100649.09;;;26.63;56.67
77739;BME280;66904;59.926;30.404;2023-08-31T07:54:55;100639.13;;;26.57;56.73
77739;BME280;66904;59.926;30.404;2023-08-31T07:59:55;100643.91;;;26.55;57.15
77739;BME280;66904;59.926;30.404;2023-08-31T08:04:56;100623.47;;;26.53;56.46
77739;BME280;66904;59.926;30.404;2023-08-31T08:09:57;100619.53;;;26.49;56.55
77739;BME280;66904;59.926;30.404;2023-08-31T08:14:57;100612.28;;;26.43;56.81
77739;BME280;66904;59.926;30.404;2023-08-31T08:19:58;100613.72;;;26.45;56.63
77739;BME280;66904;59.926;30.404;2023-08-31T08:24:58;100619.38;;;26.44;56.71
77739;BME280;66904;59.926;30.404;2023-08-31T08:29:59;100618.34;;;26.45;57.15
77739;BME280;66904;59.926;30.404;2023-08-31T08:35:00;100622.69;;;26.46;57.25
77739;BME280;66904;59.926;30.404;2023-08-31T08:40:01;100594.53;;;26.47;57.28
77739;BME280;66904;59.926;30.404;2023-08-31T08:45:03;100591.56;;;26.48;56.71
77739;BME280;66904;59.926;30.404;2023-08-31T08:50:05;100586.78;;;26.50;57.28
77739;BME280;66904;59.926;30.404;2023-08-31T08:55:07;100597.38;;;26.52;57.04
77739;BME280;66904;59.926;30.404;2023-08-31T09:00:08;100585.88;;;26.56;56.73
77739;BME280;66904;59.926;30.404;2023-08-31T09:05:09;100566.22;;;26.61;57.29
77739;BME280;66904;59.926;30.404;2023-08-31T09:10:13;100565.34;;;26.67;57.24
77739;BME280;66904;59.926;30.404;2023-08-31T09:15:16;100579.06;;;26.72;56.83
77739;BME280;66904;59.926;30.404;2023-08-31T09:20:16;100570.47;;;26.75;56.82
77739;BME280;66904;59.926;30.404;2023-08-31T09:25:17;100558.13;;;26.79;56.81
77739;BME280;66904;59.926;30.404;2023-08-31T09:30:17;100552.28;;;26.82;56.90
77739;BME280;66904;59.926;30.404;2023-08-31T09:35:18;100559.75;;;26.87;57.46
77739;BME280;66904;59.926;30.404;2023-08-31T09:40:19;100567.44;;;26.90;56.83
77739;BME280;66904;59.926;30.404;2023-08-31T09:45:39;100570.09;;;26.96;57.36
77739;BME280;66904;59.926;30.404;2023-08-31T09:50:43;100558.03;;;26.92;57.66
77739;BME280;66904;59.926;30.404;2023-08-31T09:55:46;100555.69;;;26.96;57.92
77739;BME280;66904;59.926;30.404;2023-08-31T10:00:52;100543.53;;;26.98;57.81
77739;BME280;66904;59.926;30.404;2023-08-31T10:05:53;100545.00;;;27.01;57.16
77739;BME280;66904;59.926;30.404;2023-08-31T10:10:54;100542.03;;;27.02;57.36
77739;BME280;66904;59.926;30.404;2023-08-31T10:15:55;100560.59;;;27.05;57.85
77739;BME280;66904;59.926;30.404;2023-08-31T10:20:56;100547.19;;;27.10;57.83
77739;BME280;66904;59.926;30.404;2023-08-31T10:31:01;100544.84;;;27.14;57.71
77739;BME280;66904;59.926;30.404;2023-08-31T10:36:11;100547.56;;;27.14;58.37
77739;BME280;66904;59.926;30.404;2023-08-31T10:46:36;100526.59;;;27.21;58.20
77739;BME280;66904;59.926;30.404;2023-08-31T10:51:44;100532.69;;;27.16;57.93
77739;BME280;66904;59.926;30.404;2023-08-31T11:02:01;100526.31;;;27.11;58.33
77739;BME280;66904;59.926;30.404;2023-08-31T11:07:16;100531.72;;;27.11;58.48
77739;BME280;66904;59.926;30.404;2023-08-31T11:12:17;100521.53;;;27.06;57.87
77739;BME280;66904;59.926;30.404;2023-08-31T11:17:17;100522.59;;;27.05;58.23
77739;BME280;66904;59.926;30.404;2023-08-31T11:22:18;100512.78;;;27.04;57.95
77739;BME280;66904;59.926;30.404;2023-08-31T11:27:20;100541.22;;;27.02;57.82
77739;BME280;66904;59.926;30.404;2023-08-31T11:32:23;100524.91;;;27.02;57.67
77739;BME280;66904;59.926;30.404;2023-08-31T11:37:24;100510.75;;;27.00;57.69
77739;BME280;66904;59.926;30.404;2023-08-31T11:42:27;100497.00;;;26.95;57.36
77739;BME280;66904;59.926;30.404;2023-08-31T11:47:27;100509.97;;;26.93;57.46
77739;BME280;66904;59.926;30.404;2023-08-31T11:52:28;100518.31;;;26.98;57.64
77739;BME280;66904;59.926;30.404;2023-08-31T11:57:30;100494.97;;;26.90;57.59
77739;BME280;66904;59.926;30.404;2023-08-31T12:02:40;100506.59;;;26.97;57.46
77739;BME280;66904;59.926;30.404;2023-08-31T12:07:41;100497.06;;;26.88;57.42
77739;BME280;66904;59.926;30.404;2023-08-31T12:12:42;100499.72;;;26.95;56.74
77739;BME280;66904;59.926;30.404;2023-08-31T12:17:42;100501.63;;;26.94;56.52
77739;BME280;66904;59.926;30.404;2023-08-31T12:22:45;100489.09;;;26.93;56.53
77739;BME280;66904;59.926;30.404;2023-08-31T12:27:45;100496.66;;;26.91;57.22
77739;BME280;66904;59.926;30.404;2023-08-31T12:32:46;100499.50;;;26.96;56.82
77739;BME280;66904;59.926;30.404;2023-08-31T12:37:46;100508.16;;;27.05;56.95
77739;BME280;66904;59.926;30.404;2023-08-31T12:42:47;100515.19;;;27.12;57.49
77739;BME280;66904;59.926;30.404;2023-08-31T12:47:47;100499.28;;;27.16;57.31
77739;BME280;66904;59.926;30.404;2023-08-31T12:52:48;100495.25;;;27.18;57.55
77739;BME280;66904;59.926;30.404;2023-08-31T12:57:49;100502.38;;;27.19;57.38
77739;BME280;66904;59.926;30.404;2023-08-31T13:02:50;100497.53;;;27.21;57.03
77739;BME280;66904;59.926;30.404;2023-08-31T13:07:51;100493.31;;;27.26;57.53
77739;BME280;66904;59.926;30.404;2023-08-31T13:12:51;100483.06;;;27.28;56.95
77739;BME280;66904;59.926;30.404;2023-08-31T13:17:52;100472.78;;;27.30;57.47
77739;BME280;66904;59.926;30.404;2023-08-31T13:22:53;100478.66;;;27.27;56.98
77739;BME280;66904;59.926;30.404;2023-08-31T13:27:53;100488.50;;;27.28;57.21
77739;BME280;66904;59.926;30.404;2023-08-31T13:32:54;100496.63;;;27.28;57.18
77739;BME280;66904;59.926;30.404;2023-08-31T13:37:54;100496.47;;;27.22;56.99
77739;BME280;66904;59.926;30.404;2023-08-31T13:42:57;100512.78;;;27.22;57.27
77739;BME280;66904;59.926;30.404;2023-08-31T13:48:01;100495.25;;;27.18;57.25
77739;BME280;66904;59.926;30.404;2023-08-31T13:53:04;100499.66;;;27.19;57.05
77739;BME280;66904;59.926;30.404;2023-08-31T13:58:05;100503.78;;;27.22;57.62
77739;BME280;66904;59.926;30.404;2023-08-31T14:03:07;100504.41;;;27.24;57.93
77739;BME280;66904;59.926;30.404;2023-08-31T14:08:07;100504.16;;;27.26;57.56
77739;BME280;66904;59.926;30.404;2023-08-31T14:13:08;100500.41;;;27.27;58.06
77739;BME280;66904;59.926;30.404;2023-08-31T14:18:09;100504.16;;;27.26;57.51
77739;BME280;66904;59.926;30.404;2023-08-31T14:23:09;100509.59;;;27.26;57.83
77739;BME280;66904;59.926;30.404;2023-08-31T14:28:10;100507.72;;;27.26;57.62
77739;BME280;66904;59.926;30.404;2023-08-31T14:33:10;100516.47;;;27.28;58.05
77739;BME280;66904;59.926;30.404;2023-08-31T14:38:11;100521.69;;;27.30;58.40
77739;BME280;66904;59.926;30.404;2023-08-31T14:43:12;100528.63;;;27.26;58.66
77739;BME280;66904;59.926;30.404;2023-08-31T14:48:13;100533.75;;;27.34;58.57
77739;BME280;66904;59.926;30.404;2023-08-31T14:53:13;100529.16;;;27.34;59.12
77739;BME280;66904;59.926;30.404;2023-08-31T14:58:14;100524.53;;;27.35;58.38
77739;BME280;66904;59.926;30.404;2023-08-31T15:03:15;100529.50;;;27.38;58.06
77739;BME280;66904;59.926;30.404;2023-08-31T15:08:16;100542.88;;;27.39;57.80
77739;BME280;66904;59.926;30.404;2023-08-31T15:13:16;100560.00;;;27.40;57.14
77739;BME280;66904;59.926;30.404;2023-08-31T15:18:19;100557.88;;;27.42;57.67
77739;BME280;66904;59.926;30.404;2023-08-31T15:23:20;100565.66;;;27.38;57.61
77739;BME280;66904;59.926;30.404;2023-08-31T15:28:21;100574.66;;;27.39;57.04
77739;BME280;66904;59.926;30.404;2023-08-31T15:33:21;100583.84;;;27.38;56.73
77739;BME280;66904;59.926;30.404;2023-08-31T15:38:22;100580.53;;;27.36;56.86
77739;BME280;66904;59.926;30.404;2023-08-31T15:43:22;100584.53;;;27.33;56.68
77739;BME280;66904;59.926;30.404;2023-08-31T15:48:23;100581.00;;;27.33;56.77
77739;BME280;66904;59.926;30.404;2023-08-31T15:53:24;100597.88;;;27.35;56.79
77739;BME280;66904;59.926;30.404;2023-08-31T15:58:26;100601.44;;;27.35;56.30
77739;BME280;66904;59.926;30.404;2023-08-31T16:03:28;100616.91;;;27.35;56.13
77739;BME280;66904;59.926;30.404;2023-08-31T16:08:30;100626.72;;;27.36;56.30
77739;BME280;66904;59.926;30.404;2023-08-31T16:13:31;100623.81;;;27.37;56.16
77739;BME280;66904;59.926;30.404;2023-08-31T16:18:32;100631.50;;;27.40;56.51
77739;BME280;66904;59.926;30.404;2023-08-31T16:23:32;100635.66;;;27.43;56.90
77739;BME280;66904;59.926;30.404;2023-08-31T16:28:33;100630.84;;;27.45;56.46
77739;BME280;66904;59.926;30.404;2023-08-31T16:33:33;100635.00;;;27.47;56.27
77739;BME280;66904;59.926;30.404;2023-08-31T16:38:34;100635.81;;;27.48;56.51
77739;BME280;66904;59.926;30.404;2023-08-31T16:43:35;100638.91;;;27.51;56.34
77739;BME280;66904;59.926;30.404;2023-08-31T16:48:35;100625.31;;;27.51;56.86
77739;BME280;66904;59.926;30.404;2023-08-31T16:53:36;100625.56;;;27.50;56.37
77739;BME280;66904;59.926;30.404;2023-08-31T16:58:38;100626.03;;;27.47;56.60
77739;BME280;66904;59.926;30.404;2023-08-31T17:03:39;100629.19;;;27.44;55.81
77739;BME280;66904;59.926;30.404;2023-08-31T17:08:40;100635.66;;;27.43;56.04
77739;BME280;66904;59.926;30.404;2023-08-31T17:13:41;100645.53;;;27.37;56.10
77739;BME280;66904;59.926;30.404;2023-08-31T17:18:42;100648.72;;;27.34;55.42
77739;BME280;66904;59.926;30.404;2023-08-31T17:23:43;100656.69;;;27.29;55.40
77739;BME280;66904;59.926;30.404;2023-08-31T17:28:44;100663.41;;;27.27;55.59
77739;BME280;66904;59.926;30.404;2023-08-31T17:33:46;100673.88;;;27.23;55.47
77739;BME280;66904;59.926;30.404;2023-08-31T17:38:48;100665.16;;;27.21;55.57
77739;BME280;66904;59.926;30.404;2023-08-31T17:43:48;100658.25;;;27.18;55.97
77739;BME280;66904;59.926;30.404;2023-08-31T17:48:49;100667.69;;;27.16;55.80
77739;BME280;66904;59.926;30.404;2023-08-31T17:53:50;100655.59;;;27.12;55.52
77739;BME280;66904;59.926;30.404;2023-08-31T17:58:50;100664.81;;;27.11;55.52
77739;BME280;66904;59.926;30.404;2023-08-31T18:03:51;100667.75;;;27.09;55.64
77739;BME280;66904;59.926;30.404;2023-08-31T18:08:51;100678.41;;;27.11;55.70
77739;BME280;66904;59.926;30.404;2023-08-31T18:13:52;100686.31;;;27.12;55.75
77739;BME280;66904;59.926;30.404;2023-08-31T18:18:53;100680.66;;;27.14;55.82
77739;BME280;66904;59.926;30.404;2023-08-31T18:23:53;100673.13;;;27.16;56.14
77739;BME280;66904;59.926;30.404;2023-08-31T18:28:54;100678.53;;;27.16;56.12
77739;BME280;66904;59.926;30.404;2023-08-31T18:33:55;100683.53;;;27.19;56.76
77739;BME280;66904;59.926;30.404;2023-08-31T18:38:55;100676.41;;;27.18;56.67
77739;BME280;66904;59.926;30.404;2023-08-31T18:43:56;100683.25;;;27.27;56.87
77739;BME280;66904;59.926;30.404;2023-08-31T18:48:57;100678.88;;;27.26;57.04
77739;BME280;66904;59.926;30.404;2023-08-31T18:53:57;100690.56;;;27.27;57.04
77739;BME280;66904;59.926;30.404;2023-08-31T18:58:58;100681.19;;;27.22;57.10
77739;BME280;66904;59.926;30.404;2023-08-31T19:03:59;100689.34;;;27.22;56.87
77739;BME280;66904;59.926;30.404;2023-08-31T19:09:04;100692.31;;;27.21;57.23
77739;BME280;66904;59.926;30.404;2023-08-31T19:14:04;100697.13;;;27.19;57.10
77739;BME280;66904;59.926;30.404;2023-08-31T19:19:05;100695.44;;;27.18;57.52
77739;BME280;66904;59.926;30.404;2023-08-31T19:24:06;100694.00;;;27.15;57.78
77739;BME280;66904;59.926;30.404;2023-08-31T19:29:06;100695.88;;;27.15;57.74
77739;BME280;66904;59.926;30.404;2023-08-31T19:34:07;100687.34;;;27.11;57.68
77739;BME280;66904;59.926;30.404;2023-08-31T19:39:07;100693.03;;;27.10;57.33
77739;BME280;66904;59.926;30.404;2023-08-31T19:44:08;100694.50;;;27.06;57.80
77739;BME280;66904;59.926;30.404;2023-08-31T19:49:08;100689.31;;;27.04;57.49
77739;BME280;66904;59.926;30.404;2023-08-31T19:54:09;100707.94;;;27.01;57.77
77739;BME280;66904;59.926;30.404;2023-08-31T19:59:11;100721.72;;;26.99;57.38
77739;BME280;66904;59.926;30.404;2023-08-31T20:04:11;100729.47;;;26.96;57.31
77739;BME280;66904;59.926;30.404;2023-08-31T20:09:12;100731.34;;;26.95;57.80
77739;BME280;66904;59.926;30.404;2023-08-31T20:14:15;100723.84;;;26.97;57.78
77739;BME280;66904;59.926;30.404;2023-08-31T20:19:15;100721.13;;;26.97;57.32
77739;BME280;66904;59.926;30.404;2023-08-31T20:24:16;100723.00;;;26.97;57.59
77739;BME280;66904;59.926;30.404;2023-08-31T20:29:18;100713.63;;;26.93;57.10
77739;BME280;66904;59.926;30.404;2023-08-31T20:34:20;100742.22;;;26.95;57.34
77739;BME280;66904;59.926;30.404;2023-08-31T20:39:21;100749.72;;;27.00;57.64
77739;BME280;66904;59.926;30.404;2023-08-31T20:44:22;100778.94;;;27.04;57.85
77739;BME280;66904;59.926;30.404;2023-08-31T20:49:22;100821.13;;;27.07;57.54
77739;BME280;66904;59.926;30.404;2023-08-31T20:54:23;100771.59;;;27.05;57.61
77739;BME280;66904;59.926;30.404;2023-08-31T20:59:23;100758.03;;;27.05;57.87
77739;BME280;66904;59.926;30.404;2023-08-31T21:04:24;100769.31;;;27.02;57.84
77739;BME280;66904;59.926;30.404;2023-08-31T21:09:24;100799.59;;;27.05;58.62
77739;BME280;66904;59.926;30.404;2023-08-31T21:14:25;100816.97;;;27.04;58.56
77739;BME280;66904;59.926;30.404;2023-08-31T21:19:26;100820.72;;;27.03;58.75
77739;BME280;66904;59.926;30.404;2023-08-31T21:24:28;100852.03;;;27.06;58.49
77739;BME280;66904;59.926;30.404;2023-08-31T21:29:29;100869.38;;;27.05;58.72
77739;BME280;66904;59.926;30.404;2023-08-31T21:34:29;100798.81;;;26.98;59.12
77739;BME280;66904;59.926;30.404;2023-08-31T21:39:30;100784.88;;;26.88;58.72
77739;BME280;66904;59.926;30.404;2023-08-31T21:44:30;100739.38;;;26.84;59.23
77739;BME280;66904;59.926;30.404;2023-08-31T21:49:31;100733.53;;;26.80;59.17
77739;BME280;66904;59.926;30.404;2023-08-31T21:54:31;100729.97;;;26.80;59.26
77739;BME280;66904;59.926;30.404;2023-08-31T21:59:32;100724.16;;;26.76;59.46
77739;BME280;66904;59.926;30.404;2023-08-31T22:04:32;100708.91;;;26.75;59.76
77739;BME280;66904;59.926;30.404;2023-08-31T22:09:34;100687.03;;;26.70;59.49
77739;BME280;66904;59.926;30.404;2023-08-31T22:14:34;100683.47;;;26.69;59.27
77739;BME280;66904;59.926;30.404;2023-08-31T22:19:36;100682.03;;;26.67;59.35
77739;BME280;66904;59.926;30.404;2023-08-31T22:24:36;100673.06;;;26.66;59.37
77739;BME280;66904;59.926;30.404;2023-08-31T22:29:37;100672.03;;;26.67;59.58
77739;BME280;66904;59.926;30.404;2023-08-31T22:34:38;100668.47;;;26.67;59.22
77739;BME280;66904;59.926;30.404;2023-08-31T22:39:38;100669.31;;;26.67;59.80
77739;BME280;66904;59.926;30.404;2023-08-31T22:44:39;100667.66;;;26.66;59.32
77739;BME280;66904;59.926;30.404;2023-08-31T22:49:39;100665.13;;;26.65;59.77
77739;BME280;66904;59.926;30.404;2023-08-31T22:54:40;100673.28;;;26.65;59.77
77739;BME280;66904;59.926;30.404;2023-08-31T22:59:41;100686.25;;;26.63;59.41
77739;BME280;66904;59.926;30.404;2023-08-31T23:04:41;100698.13;;;26.62;59.39
77739;BME280;66904;59.926;30.404;2023-08-31T23:09:42;100701.53;;;26.57;59.70
77739;BME280;66904;59.926;30.404;2023-08-31T23:14:43;100703.41;;;26.57;59.83
77739;BME280;66904;59.926;30.404;2023-08-31T23:19:45;100696.75;;;26.53;59.14
77739;BME280;66904;59.926;30.404;2023-08-31T23:24:45;100679.88;;;26.51;59.87
77739;BME280;66904;59.926;30.404;2023-08-31T23:29:47;100682.19;;;26.47;59.41
77739;BME280;66904;59.926;30.404;2023-08-31T23:34:48;100694.06;;;26.46;59.22
77739;BME280;66904;59.926;30.404;2023-08-31T23:39:49;100706.19;;;26.44;59.20
77739;BME280;66904;59.926;30.404;2023-08-31T23:44:49;100718.31;;;26.41;59.08
77739;BME280;66904;59.926;30.404;2023-08-31T23:49:50;100713.34;;;26.38;59.71
77739;BME280;66904;59.926;30.404;2023-08-31T23:54:52;100712.94;;;26.35;59.30
77739;BME280;66904;59.926;30.404;2023-08-31T23:59:52;100712.09;;;26.34;59.20
